createdAt,value
2018-08-12T00:02:10.581Z,101144.60
2018-08-12T00:04:44.456Z,101148.52
2018-08-12T00:07:18.057Z,101151.60
2018-08-12T00:09:51.834Z,101152.61
2018-08-12T00:12:25.848Z,101148.76
2018-08-12T00:14:59.585Z,101144.53
2018-08-12T00:17:33.176Z,101140.75
2018-08-12T00:20:08.531Z,101136.06
2018-08-12T00:22:42.569Z,101139.95
2018-08-12T00:25:17.846Z,101132.28
2018-08-12T00:27:51.504Z,101135.30
2018-08-12T00:30:25.102Z,101136.69
2018-08-12T00:32:59.002Z,101141.45
2018-08-12T00:35:32.799Z,101134.71
2018-08-12T00:38:06.947Z,101129.70
2018-08-12T00:40:40.656Z,101123.80
2018-08-12T00:43:15.322Z,101127.70
2018-08-12T00:45:48.910Z,101119.20
2018-08-12T00:48:22.843Z,101112.84
2018-08-12T00:50:56.522Z,101115.04
2018-08-12T00:53:30.260Z,101119.44
2018-08-12T00:56:03.782Z,101122.00
2018-08-12T00:58:37.419Z,101121.61
2018-08-12T01:01:11.209Z,101116.98
2018-08-12T01:03:44.821Z,101114.50
2018-08-12T01:06:18.631Z,101111.98
2018-08-12T01:08:52.230Z,101116.38
2018-08-12T01:11:25.863Z,101112.15
2018-08-12T01:13:59.627Z,101106.19
2018-08-12T01:16:33.278Z,101115.11
2018-08-12T01:19:07.141Z,101119.80
2018-08-12T01:21:40.554Z,101122.79
2018-08-12T01:24:14.024Z,101121.56
2018-08-12T01:26:47.472Z,101121.56
2018-08-12T01:29:20.973Z,101127.48
2018-08-12T01:31:54.434Z,101120.28
2018-08-12T01:34:27.905Z,101111.31
2018-08-12T01:37:01.356Z,101106.59
2018-08-12T01:39:34.831Z,101107.02
2018-08-12T01:42:08.268Z,101102.35
2018-08-12T01:44:41.720Z,101104.52
2018-08-12T01:47:15.136Z,101107.08
2018-08-12T01:49:48.563Z,101103.62
2018-08-12T01:52:21.984Z,101108.80
2018-08-12T01:54:55.459Z,101109.59
2018-08-12T01:57:28.855Z,101105.23
2018-08-12T02:00:02.417Z,101097.44
2018-08-12T02:02:35.843Z,101104.61
2018-08-12T02:05:09.264Z,101102.05
2018-08-12T02:07:42.795Z,101099.83
2018-08-12T02:10:16.250Z,101099.03
2018-08-12T02:12:49.655Z,101092.18
2018-08-12T02:15:23.087Z,101099.81
2018-08-12T02:17:56.480Z,101098.59
2018-08-12T02:20:29.913Z,101091.67
2018-08-12T02:23:03.319Z,101089.95
2018-08-12T02:25:36.784Z,101084.82
2018-08-12T02:28:10.178Z,101086.98
2018-08-12T02:30:43.608Z,101079.73
2018-08-12T02:33:17.079Z,101079.36
2018-08-12T02:35:50.503Z,101083.22
2018-08-12T02:38:23.955Z,101082.83
2018-08-12T02:40:57.374Z,101081.53
2018-08-12T02:43:30.805Z,101086.22
2018-08-12T02:46:04.248Z,101084.55
2018-08-12T02:48:37.648Z,101079.47
2018-08-12T02:51:11.050Z,101076.08
2018-08-12T02:53:44.548Z,101077.05
2018-08-12T02:56:17.995Z,101073.27
2018-08-12T02:58:51.409Z,101064.30
2018-08-12T03:01:24.841Z,101065.18
2018-08-12T03:03:58.251Z,101059.67
2018-08-12T03:06:31.627Z,101051.08
2018-08-12T03:09:08.472Z,101050.20
2018-08-12T03:11:42.299Z,101047.23
2018-08-12T03:14:15.733Z,101046.34
2018-08-12T03:16:49.154Z,101045.67
2018-08-12T03:19:22.649Z,101055.55
2018-08-12T03:21:56.051Z,101050.81
2018-08-12T03:24:29.503Z,101050.86
2018-08-12T03:27:02.914Z,101048.42
2018-08-12T03:29:36.374Z,101046.74
2018-08-12T03:32:09.890Z,101047.59
2018-08-12T03:34:43.296Z,101042.95
2018-08-12T03:37:16.691Z,101043.86
2018-08-12T03:39:51.055Z,101048.97
2018-08-12T03:42:24.450Z,101047.25
2018-08-12T03:44:57.871Z,101050.65
2018-08-12T03:47:31.275Z,101050.60
2018-08-12T03:50:05.392Z,101050.94
2018-08-12T03:52:39.135Z,101050.52
2018-08-12T03:55:13.372Z,101054.38
2018-08-12T03:57:46.820Z,101049.75
2018-08-12T04:00:20.303Z,101046.36
2018-08-12T04:02:54.370Z,101044.25
2018-08-12T04:05:29.103Z,101049.03
2018-08-12T04:08:03.543Z,101049.93
2018-08-12T04:10:37.538Z,101043.58
2018-08-12T04:13:11.631Z,101048.31
2018-08-12T04:15:45.561Z,101045.32
2018-08-12T04:18:20.963Z,101046.20
2018-08-12T04:20:55.014Z,101047.48
2018-08-12T04:23:28.990Z,101049.15
2018-08-12T04:26:02.914Z,101048.71
2018-08-12T04:28:37.004Z,101041.84
2018-08-12T04:31:11.069Z,101040.91
2018-08-12T04:33:45.014Z,101038.28
2018-08-12T04:36:18.991Z,101034.83
2018-08-12T04:38:53.048Z,101035.55
2018-08-12T04:41:27.024Z,101032.98
2018-08-12T04:44:00.951Z,101026.95
2018-08-12T04:46:35.548Z,101027.68
2018-08-12T04:49:10.481Z,101023.72
2018-08-12T04:51:44.504Z,101025.27
2018-08-12T04:54:18.457Z,101018.66
2018-08-12T04:56:52.529Z,101015.95
2018-08-12T04:59:26.488Z,101013.60
2018-08-12T05:02:00.426Z,101018.92
2018-08-12T05:04:34.415Z,101012.57
2018-08-12T05:07:08.480Z,101011.72
2018-08-12T05:09:42.498Z,101009.25
2018-08-12T05:12:16.478Z,101007.13
2018-08-12T05:14:50.487Z,101006.70
2018-08-12T05:17:24.436Z,101009.19
2018-08-12T05:19:58.526Z,101006.00
2018-08-12T05:22:32.494Z,101009.72
2018-08-12T05:25:06.541Z,101005.78
2018-08-12T05:27:40.483Z,101002.09
2018-08-12T05:30:14.541Z,101012.41
2018-08-12T05:32:48.474Z,101004.05
2018-08-12T05:35:22.428Z,101001.60
2018-08-12T05:37:56.463Z,100994.47
2018-08-12T05:40:30.471Z,100988.60
2018-08-12T05:43:04.441Z,100989.46
2018-08-12T05:45:38.460Z,100988.59
2018-08-12T05:48:12.436Z,100984.88
2018-08-12T05:50:46.276Z,100983.65
2018-08-12T05:53:20.306Z,100978.80
2018-08-12T05:55:54.150Z,100976.49
2018-08-12T05:58:28.159Z,100976.53
2018-08-12T06:01:02.197Z,100961.67
2018-08-12T06:03:36.114Z,100968.74
2018-08-12T06:06:10.184Z,100960.38
2018-08-12T06:08:43.592Z,100960.27
2018-08-12T06:11:17.023Z,100960.66
2018-08-12T06:13:50.432Z,100958.71
2018-08-12T06:16:23.851Z,100955.55
2018-08-12T06:18:57.292Z,100960.95
2018-08-12T06:21:30.713Z,100960.79
2018-08-12T06:24:04.190Z,100965.88
2018-08-12T06:26:37.637Z,100965.70
2018-08-12T06:29:11.037Z,100964.75
2018-08-12T06:31:44.477Z,100961.31
2018-08-12T06:34:17.936Z,100957.94
2018-08-12T06:36:51.332Z,100961.00
2018-08-12T06:39:24.744Z,100958.50
2018-08-12T06:41:58.152Z,100961.39
2018-08-12T06:44:31.549Z,100954.30
2018-08-12T06:47:05.034Z,100956.38
2018-08-12T06:49:38.448Z,100951.03
2018-08-12T06:52:11.890Z,100949.53
2018-08-12T06:54:45.280Z,100950.41
2018-08-12T06:57:18.668Z,100947.36
2018-08-12T06:59:52.066Z,100940.09
2018-08-12T07:02:25.578Z,100938.97
2018-08-12T07:04:59.018Z,100939.50
2018-08-12T07:07:32.436Z,100936.53
2018-08-12T07:10:07.922Z,100938.45
2018-08-12T07:12:41.751Z,100937.98
2018-08-12T07:15:17.619Z,100936.70
2018-08-12T07:17:51.060Z,100930.09
2018-08-12T07:20:24.470Z,100932.07
2018-08-12T07:22:57.898Z,100928.52
2018-08-12T07:25:31.362Z,100927.58
2018-08-12T07:28:04.829Z,100925.67
2018-08-12T07:30:38.279Z,100925.77
2018-08-12T07:33:11.686Z,100918.34
2018-08-12T07:35:45.083Z,100918.95
2018-08-12T07:38:18.560Z,100915.60
2018-08-12T07:40:51.969Z,100919.49
2018-08-12T07:43:25.404Z,100919.22
2018-08-12T07:45:58.820Z,100916.67
2018-08-12T07:48:32.399Z,100908.31
2018-08-12T07:51:05.801Z,100910.81
2018-08-12T07:53:39.275Z,100911.05
2018-08-12T07:56:12.765Z,100914.03
2018-08-12T08:01:18.685Z,100901.97
2018-08-12T08:03:52.548Z,100904.18
2018-08-12T08:06:26.070Z,100899.58
2018-08-12T08:08:59.622Z,100897.05
2018-08-12T08:11:33.074Z,100895.13
2018-08-12T08:14:06.718Z,100890.84
2018-08-12T08:16:40.215Z,100883.09
2018-08-12T08:19:13.687Z,100889.34
2018-08-12T08:21:47.121Z,100887.63
2018-08-12T08:24:20.708Z,100891.55
2018-08-12T08:26:54.117Z,100889.80
2018-08-12T08:29:27.632Z,100887.42
2018-08-12T08:32:02.074Z,100892.49
2018-08-12T08:34:36.474Z,100893.14
2018-08-12T08:37:10.037Z,100890.38
2018-08-12T08:39:44.297Z,100899.83
2018-08-12T08:42:17.953Z,100898.02
2018-08-12T08:44:51.384Z,100894.22
2018-08-12T08:47:32.992Z,100884.50
2018-08-12T08:50:06.573Z,100883.64
2018-08-12T08:52:40.007Z,100888.77
2018-08-12T08:55:14.375Z,100881.64
2018-08-12T08:57:48.438Z,100878.80
2018-08-12T09:00:22.290Z,100877.13
2018-08-12T09:02:55.819Z,100879.11
2018-08-12T09:05:29.295Z,100878.95
2018-08-12T09:08:02.820Z,100875.75
2018-08-12T09:10:36.490Z,100870.35
2018-08-12T09:13:09.975Z,100865.58
2018-08-12T09:15:43.355Z,100871.99
2018-08-12T09:18:16.905Z,100859.30
2018-08-12T09:20:50.259Z,100850.96
2018-08-12T09:23:23.765Z,100857.72
2018-08-12T09:25:57.278Z,100851.42
2018-08-12T09:28:30.894Z,100848.57
2018-08-12T09:31:04.326Z,100847.73
2018-08-12T09:33:37.949Z,100850.66
2018-08-12T09:36:11.663Z,100850.03
2018-08-12T09:38:45.495Z,100841.70
2018-08-12T09:41:18.912Z,100836.80
2018-08-12T09:43:52.439Z,100834.38
2018-08-12T09:46:25.865Z,100839.89
2018-08-12T09:48:59.340Z,100835.14
2018-08-12T09:51:33.058Z,100838.10
2018-08-12T09:54:06.512Z,100841.89
2018-08-12T09:56:39.965Z,100833.94
2018-08-12T09:59:13.422Z,100831.22
2018-08-12T10:01:46.963Z,100824.30
2018-08-12T10:04:21.022Z,100819.64
2018-08-12T10:06:55.093Z,100812.80
2018-08-12T10:09:29.264Z,100807.44
2018-08-12T10:12:04.802Z,100810.40
2018-08-12T10:14:38.802Z,100809.42
2018-08-12T10:17:12.708Z,100800.11
2018-08-12T10:19:46.536Z,100802.69
2018-08-12T10:22:20.802Z,100799.24
2018-08-12T10:24:55.040Z,100800.40
2018-08-12T10:27:29.233Z,100796.13
2018-08-12T10:30:03.567Z,100785.47
2018-08-12T10:32:37.612Z,100786.73
2018-08-12T10:35:14.614Z,100782.09
2018-08-12T10:37:48.572Z,100778.65
2018-08-12T10:40:22.297Z,100775.42
2018-08-12T10:42:56.968Z,100765.69
2018-08-12T10:45:30.727Z,100774.38
2018-08-12T10:48:04.446Z,100764.72
2018-08-12T10:50:37.976Z,100772.78
2018-08-12T10:53:12.544Z,100761.64
2018-08-12T10:55:46.431Z,100757.59
2018-08-12T10:58:20.248Z,100758.55
2018-08-12T11:00:56.057Z,100751.99
2018-08-12T11:03:29.914Z,100757.63
2018-08-12T11:06:03.932Z,100765.48
2018-08-12T11:08:37.936Z,100752.61
2018-08-12T11:11:11.926Z,100759.84
2018-08-12T11:13:45.922Z,100746.56
2018-08-12T11:16:19.890Z,100745.95
2018-08-12T11:18:53.936Z,100741.23
2018-08-12T11:21:27.923Z,100733.81
2018-08-12T11:24:01.908Z,100740.75
2018-08-12T11:26:36.410Z,100732.41
2018-08-12T11:29:10.366Z,100734.63
2018-08-12T11:31:44.338Z,100728.00
2018-08-12T11:34:18.300Z,100721.84
2018-08-12T11:36:51.984Z,100727.72
2018-08-12T11:39:26.489Z,100711.72
2018-08-12T11:42:00.463Z,100710.00
2018-08-12T11:44:34.388Z,100704.42
2018-08-12T11:47:09.049Z,100707.28
2018-08-12T11:49:42.915Z,100699.44
2018-08-12T11:52:16.420Z,100696.12
2018-08-12T11:54:49.889Z,100690.39
2018-08-12T11:57:23.328Z,100683.63
2018-08-12T11:59:56.797Z,100682.66
2018-08-12T12:02:30.265Z,100681.13
2018-08-12T12:05:03.847Z,100676.87
2018-08-12T12:07:38.136Z,100674.00
2018-08-12T12:10:14.336Z,100673.42
2018-08-12T12:12:49.366Z,100674.95
2018-08-12T12:15:22.863Z,100671.30
2018-08-12T12:17:56.332Z,100668.00
2018-08-12T12:20:29.816Z,100661.06
2018-08-12T12:23:03.236Z,100661.45
2018-08-12T12:25:36.693Z,100655.75
2018-08-12T12:28:10.262Z,100658.08
2018-08-12T12:30:43.739Z,100657.61
2018-08-12T12:33:17.720Z,100655.66
2018-08-12T12:35:51.740Z,100657.03
2018-08-12T12:38:25.946Z,100658.37
2018-08-12T12:40:59.883Z,100659.11
2018-08-12T12:43:33.859Z,100660.56
2018-08-12T12:46:07.621Z,100655.75
2018-08-12T12:48:41.573Z,100654.70
2018-08-12T12:51:16.597Z,100653.32
2018-08-12T12:53:50.648Z,100645.61
2018-08-12T12:56:25.069Z,100641.61
2018-08-12T12:58:59.000Z,100645.42
2018-08-12T13:01:32.996Z,100645.33
2018-08-12T13:04:06.890Z,100631.72
2018-08-12T13:06:40.468Z,100634.00
2018-08-12T13:09:14.394Z,100627.08
2018-08-12T13:11:49.387Z,100628.98
2018-08-12T13:14:23.130Z,100618.73
2018-08-12T13:16:56.947Z,100615.44
2018-08-12T13:19:31.056Z,100618.62
2018-08-12T13:22:05.036Z,100612.76
2018-08-12T13:24:39.544Z,100608.30
2018-08-12T13:27:13.182Z,100600.82
2018-08-12T13:29:47.034Z,100600.14
2018-08-12T13:32:21.079Z,100590.52
2018-08-12T13:34:55.023Z,100596.55
2018-08-12T13:37:32.283Z,100596.09
2018-08-12T13:40:11.526Z,100596.63
2018-08-12T13:42:46.463Z,100591.72
2018-08-12T13:45:19.883Z,100593.70
2018-08-12T13:47:53.303Z,100590.96
2018-08-12T13:50:26.747Z,100588.02
2018-08-12T13:53:00.189Z,100576.42
2018-08-12T13:55:35.920Z,100574.70
2018-08-12T13:58:10.007Z,100567.45
2018-08-12T14:00:43.439Z,100564.45
2018-08-12T14:03:16.850Z,100566.17
2018-08-12T14:05:50.278Z,100557.77
2018-08-12T14:08:23.795Z,100554.72
2018-08-12T14:10:57.212Z,100548.72
2018-08-12T14:13:30.720Z,100554.67
2018-08-12T14:16:04.274Z,100541.68
2018-08-12T14:18:37.793Z,100545.39
2018-08-12T14:21:11.333Z,100544.49
2018-08-12T14:23:44.736Z,100540.55
2018-08-12T14:26:19.145Z,100538.39
2018-08-12T14:28:52.564Z,100540.89
2018-08-12T14:31:26.062Z,100527.77
2018-08-12T14:33:59.507Z,100528.33
2018-08-12T14:36:32.954Z,100516.55
2018-08-12T14:39:08.457Z,100517.83
2018-08-12T14:41:41.872Z,100508.27
2018-08-12T14:44:15.265Z,100509.23
2018-08-12T14:46:48.681Z,100507.34
2018-08-12T14:49:22.067Z,100494.66
2018-08-12T14:51:55.504Z,100501.84
2018-08-12T14:54:28.903Z,100497.87
2018-08-12T14:57:02.352Z,100492.41
2018-08-12T14:59:35.781Z,100477.97
2018-08-12T15:02:09.262Z,100476.92
2018-08-12T15:04:42.713Z,100469.82
2018-08-12T15:07:16.199Z,100470.64
2018-08-12T15:09:49.526Z,100473.27
2018-08-12T15:12:23.730Z,100465.75
2018-08-12T15:14:57.146Z,100464.03
2018-08-12T15:17:30.756Z,100462.50
2018-08-12T15:20:04.809Z,100455.05
2018-08-12T15:22:38.471Z,100452.61
2018-08-12T15:25:15.699Z,100445.73
2018-08-12T15:27:49.152Z,100445.20
2018-08-12T15:30:22.542Z,100441.34
2018-08-12T15:32:55.960Z,100440.52
2018-08-12T15:35:29.581Z,100436.59
2018-08-12T15:38:09.429Z,100428.67
2018-08-12T15:40:43.088Z,100430.44
2018-08-12T15:43:16.606Z,100427.05
2018-08-12T15:45:50.122Z,100428.73
2018-08-12T15:48:23.652Z,100425.20
2018-08-12T15:50:57.134Z,100425.41
2018-08-12T15:53:30.629Z,100411.16
2018-08-12T15:56:04.454Z,100418.31
2018-08-12T15:58:38.095Z,100418.03
2018-08-12T16:01:11.604Z,100411.98
2018-08-12T16:03:45.212Z,100411.28
2018-08-12T16:06:18.750Z,100409.76
2018-08-12T16:08:52.354Z,100404.39
2018-08-12T16:11:26.093Z,100408.17
2018-08-12T16:14:02.073Z,100405.77
2018-08-12T16:16:36.148Z,100405.91
2018-08-12T16:19:09.799Z,100401.70
2018-08-12T16:21:43.568Z,100402.30
2018-08-12T16:24:17.111Z,100398.16
2018-08-12T16:26:50.670Z,100386.98
2018-08-12T16:29:30.978Z,100386.36
2018-08-12T16:32:12.277Z,100384.23
2018-08-12T16:34:52.245Z,100381.70
2018-08-12T16:37:27.821Z,100384.58
2018-08-12T16:40:01.423Z,100378.98
2018-08-12T16:42:38.130Z,100376.02
2018-08-12T16:45:14.310Z,100371.68
2018-08-12T16:47:48.396Z,100370.19
2018-08-12T16:50:21.885Z,100364.95
2018-08-12T16:52:55.385Z,100364.66
2018-08-12T16:55:29.028Z,100362.98
2018-08-12T16:58:02.620Z,100361.49
2018-08-12T17:00:36.209Z,100353.64
2018-08-12T17:03:09.759Z,100357.08
2018-08-12T17:05:43.290Z,100353.22
2018-08-12T17:08:16.907Z,100357.15
2018-08-12T17:10:50.391Z,100349.72
2018-08-12T17:13:23.933Z,100343.44
2018-08-12T17:15:57.471Z,100352.65
2018-08-12T17:18:31.714Z,100342.59
2018-08-12T17:21:05.679Z,100344.33
2018-08-12T17:23:39.826Z,100340.22
2018-08-12T17:26:13.848Z,100333.66
2018-08-12T17:28:47.578Z,100325.03
2018-08-12T17:31:21.683Z,100323.20
2018-08-12T17:33:55.587Z,100332.50
2018-08-12T17:36:29.731Z,100317.59
2018-08-12T17:39:04.047Z,100324.66
2018-08-12T17:41:38.021Z,100316.40
2018-08-12T17:44:12.668Z,100314.97
2018-08-12T17:46:47.504Z,100315.56
2018-08-12T17:49:21.663Z,100312.41
2018-08-12T17:51:55.576Z,100306.97
2018-08-12T17:54:29.519Z,100308.22
2018-08-12T17:57:04.985Z,100303.88
2018-08-12T17:59:39.088Z,100305.46
2018-08-12T18:02:15.012Z,100307.55
2018-08-12T18:04:50.028Z,100311.75
2018-08-12T18:07:24.570Z,100306.69
2018-08-12T18:09:59.191Z,100305.20
2018-08-12T18:12:33.544Z,100295.73
2018-08-12T18:15:08.950Z,100294.09
2018-08-12T18:17:43.439Z,100293.83
2018-08-12T18:20:17.609Z,100289.35
2018-08-12T18:22:51.579Z,100286.07
2018-08-12T18:25:26.039Z,100294.53
2018-08-12T18:28:00.506Z,100286.99
2018-08-12T18:30:34.371Z,100285.98
2018-08-12T18:33:08.427Z,100286.02
2018-08-12T18:35:42.471Z,100285.39
2018-08-12T18:38:17.090Z,100283.50
2018-08-12T18:40:51.434Z,100286.97
2018-08-12T18:43:25.510Z,100282.84
2018-08-12T18:46:00.011Z,100284.96
2018-08-12T18:48:33.960Z,100284.50
2018-08-12T18:51:08.546Z,100277.63
2018-08-12T18:53:42.571Z,100277.98
2018-08-12T18:56:16.417Z,100276.22
2018-08-12T18:58:50.488Z,100282.31
2018-08-12T19:01:25.065Z,100287.05
2018-08-12T19:03:59.039Z,100288.36
2018-08-12T19:06:33.050Z,100285.38
2018-08-12T19:09:09.405Z,100283.25
2018-08-12T19:11:43.596Z,100284.19
2018-08-12T19:14:17.558Z,100284.89
2018-08-12T19:16:51.536Z,100285.81
2018-08-12T19:19:25.535Z,100287.22
2018-08-12T19:21:59.598Z,100286.59
2018-08-12T19:24:34.079Z,100280.48
2018-08-12T19:27:08.121Z,100274.05
2018-08-12T19:29:41.925Z,100275.25
2018-08-12T19:32:16.221Z,100281.37
2018-08-12T19:34:51.286Z,100277.08
2018-08-12T19:37:25.492Z,100280.23
2018-08-12T19:39:59.451Z,100277.25
2018-08-12T19:42:32.852Z,100280.45
2018-08-12T19:45:07.504Z,100277.28
2018-08-12T19:47:40.885Z,100272.59
2018-08-12T19:50:14.270Z,100270.11
2018-08-12T19:52:47.729Z,100273.40
2018-08-12T19:55:21.109Z,100270.26
2018-08-12T19:57:54.462Z,100275.41
2018-08-12T20:00:27.924Z,100272.91
2018-08-12T20:03:01.329Z,100264.06
2018-08-12T20:05:34.715Z,100263.02
2018-08-12T20:08:08.112Z,100264.33
2018-08-12T20:10:41.495Z,100267.80
2018-08-12T20:13:14.857Z,100262.20
2018-08-12T20:15:48.349Z,100266.97
2018-08-12T20:18:21.699Z,100260.84
2018-08-12T20:20:55.117Z,100256.86
2018-08-12T20:23:28.467Z,100256.23
2018-08-12T20:26:01.959Z,100248.22
2018-08-12T20:28:35.334Z,100249.36
2018-08-12T20:31:08.727Z,100251.61
2018-08-12T20:33:42.092Z,100248.14
2018-08-12T20:36:15.503Z,100248.80
2018-08-12T20:38:48.889Z,100247.65
2018-08-12T20:41:22.299Z,100248.06
2018-08-12T20:43:55.883Z,100241.97
2018-08-12T20:46:29.327Z,100244.53
2018-08-12T20:49:02.734Z,100238.89
2018-08-12T20:51:36.151Z,100236.45
2018-08-12T20:54:09.525Z,100241.17
2018-08-12T20:56:42.924Z,100232.10
2018-08-12T20:59:16.292Z,100235.71
2018-08-12T21:01:49.762Z,100237.01
2018-08-12T21:04:23.162Z,100234.37
2018-08-12T21:06:56.566Z,100228.81
2018-08-12T21:09:29.947Z,100227.94
2018-08-12T21:12:03.621Z,100229.42
2018-08-12T21:14:36.814Z,100225.36
2018-08-12T21:17:10.214Z,100227.03
2018-08-12T21:19:43.600Z,100226.56
2018-08-12T21:22:17.043Z,100221.69
2018-08-12T21:24:50.395Z,100217.88
2018-08-12T21:27:23.787Z,100218.81
2018-08-12T21:29:57.134Z,100212.89
2018-08-12T21:32:30.552Z,100211.70
2018-08-12T21:35:03.970Z,100212.64
2018-08-12T21:37:37.357Z,100209.02
2018-08-12T21:40:10.736Z,100208.77
2018-08-12T21:42:44.111Z,100209.14
2018-08-12T21:45:17.573Z,100212.20
2018-08-12T21:47:50.946Z,100206.92
2018-08-12T21:50:24.335Z,100205.82
2018-08-12T21:52:57.755Z,100205.11
2018-08-12T21:55:31.183Z,100199.73
2018-08-12T21:58:04.608Z,100199.66
2018-08-12T22:00:38.039Z,100199.02
2018-08-12T22:03:11.479Z,100191.42
2018-08-12T22:05:45.157Z,100191.42
2018-08-12T22:08:18.548Z,100182.38
2018-08-12T22:10:51.928Z,100183.10
2018-08-12T22:13:25.364Z,100183.97
2018-08-12T22:15:58.771Z,100187.45
2018-08-12T22:18:32.248Z,100182.38
2018-08-12T22:21:05.659Z,100183.50
2018-08-12T22:23:39.083Z,100183.72
2018-08-12T22:26:12.432Z,100185.30
2018-08-12T22:28:45.823Z,100185.12
2018-08-12T22:31:19.196Z,100177.91
2018-08-12T22:33:52.803Z,100174.30
2018-08-12T22:36:26.184Z,100172.19
2018-08-12T22:38:59.594Z,100172.73
2018-08-12T22:41:32.944Z,100178.64
2018-08-12T22:44:06.418Z,100169.77
2018-08-12T22:46:39.805Z,100172.53
2018-08-12T22:49:13.182Z,100174.11
2018-08-12T22:51:46.586Z,100176.77
2018-08-12T22:54:20.079Z,100176.05
2018-08-12T22:56:53.497Z,100175.39
2018-08-12T22:59:26.908Z,100178.52
2018-08-12T23:02:00.355Z,100173.45
2018-08-12T23:04:33.746Z,100170.47
2018-08-12T23:07:07.256Z,100166.04
2018-08-12T23:09:40.719Z,100171.97
2018-08-12T23:12:14.157Z,100163.17
2018-08-12T23:14:47.547Z,100159.86
2018-08-12T23:17:20.963Z,100161.33
2018-08-12T23:19:54.357Z,100159.20
2018-08-12T23:22:27.762Z,100157.52
2018-08-12T23:25:01.150Z,100152.35
2018-08-12T23:27:34.591Z,100153.45
2018-08-12T23:30:08.734Z,100153.63
2018-08-12T23:32:42.116Z,100156.14
2018-08-12T23:35:15.479Z,100151.44
2018-08-12T23:37:48.868Z,100155.84
2018-08-12T23:40:22.274Z,100150.31
2018-08-12T23:42:55.670Z,100142.47
2018-08-12T23:45:29.086Z,100147.16
2018-08-12T23:48:02.562Z,100142.00
2018-08-12T23:50:35.943Z,100139.22
2018-08-12T23:53:09.335Z,100131.01
2018-08-12T23:55:42.792Z,100134.89
2018-08-12T23:58:16.255Z,100131.30
